sensor_id;sensor_type;location;lat;lon;timestamp;P1;durP1;ratioP1;P2;durP2;ratioP2
69008;SDS011;56065;52.472;13.380;2022-11-09T00:02:20;4.63;;;1.55;;
69008;SDS011;56065;52.472;13.380;2022-11-09T00:04:45;4.73;;;1.60;;
69008;SDS011;56065;52.472;13.380;2022-11-09T00:07:11;5.23;;;1.80;;
69008;SDS011;56065;52.472;13.380;2022-11-09T00:09:36;5.53;;;1.70;;
69008;SDS011;56065;52.472;13.380;2022-11-09T00:12:01;4.57;;;1.50;;
69008;SDS011;56065;52.472;13.380;2022-11-09T00:14:29;6.05;;;1.50;;
69008;SDS011;56065;52.472;13.380;2022-11-09T00:16:55;5.05;;;1.70;;
69008;SDS011;56065;52.472;13.380;2022-11-09T00:19:20;4.75;;;1.35;;
69008;SDS011;56065;52.472;13.380;2022-11-09T00:21:46;4.73;;;1.50;;
69008;SDS011;56065;52.472;13.380;2022-11-09T00:24:12;6.07;;;1.40;;
69008;SDS011;56065;52.472;13.380;2022-11-09T00:26:37;5.33;;;1.20;;
69008;SDS011;56065;52.472;13.380;2022-11-09T00:29:03;4.67;;;1.50;;
69008;SDS011;56065;52.472;13.380;2022-11-09T00:31:28;6.57;;;1.30;;
69008;SDS011;56065;52.472;13.380;2022-11-09T00:33:54;4.43;;;1.43;;
69008;SDS011;56065;52.472;13.380;2022-11-09T00:36:21;4.68;;;1.40;;
69008;SDS011;56065;52.472;13.380;2022-11-09T00:38:51;6.13;;;1.52;;
69008;SDS011;56065;52.472;13.380;2022-11-09T00:41:18;5.28;;;1.52;;
69008;SDS011;56065;52.472;13.380;2022-11-09T00:43:43;6.97;;;1.53;;
69008;SDS011;56065;52.472;13.380;2022-11-09T00:46:09;5.28;;;1.50;;
69008;SDS011;56065;52.472;13.380;2022-11-09T00:48:35;5.17;;;1.70;;
69008;SDS011;56065;52.472;13.380;2022-11-09T00:51:00;6.00;;;1.50;;
69008;SDS011;56065;52.472;13.380;2022-11-09T00:53:26;4.70;;;1.63;;
69008;SDS011;56065;52.472;13.380;2022-11-09T00:55:59;4.30;;;1.45;;
69008;SDS011;56065;52.472;13.380;2022-11-09T00:58:28;5.27;;;1.60;;
69008;SDS011;56065;52.472;13.380;2022-11-09T01:00:55;6.18;;;1.73;;
69008;SDS011;56065;52.472;13.380;2022-11-09T01:03:22;6.43;;;1.50;;
69008;SDS011;56065;52.472;13.380;2022-11-09T01:05:48;5.97;;;1.60;;
69008;SDS011;56065;52.472;13.380;2022-11-09T01:08:14;6.47;;;1.50;;
69008;SDS011;56065;52.472;13.380;2022-11-09T01:10:43;4.90;;;1.37;;
69008;SDS011;56065;52.472;13.380;2022-11-09T01:13:09;5.75;;;1.90;;
69008;SDS011;56065;52.472;13.380;2022-11-09T01:15:43;4.80;;;1.55;;
69008;SDS011;56065;52.472;13.380;2022-11-09T01:18:10;5.18;;;1.50;;
69008;SDS011;56065;52.472;13.380;2022-11-09T01:20:39;5.05;;;1.52;;
69008;SDS011;56065;52.472;13.380;2022-11-09T01:23:06;5.17;;;1.70;;
69008;SDS011;56065;52.472;13.380;2022-11-09T01:25:31;5.03;;;1.38;;
69008;SDS011;56065;52.472;13.380;2022-11-09T01:27:58;4.80;;;1.67;;
69008;SDS011;56065;52.472;13.380;2022-11-09T01:30:24;6.10;;;1.52;;
69008;SDS011;56065;52.472;13.380;2022-11-09T01:32:49;9.70;;;4.00;;
69008;SDS011;56065;52.472;13.380;2022-11-09T01:35:14;7.03;;;1.90;;
69008;SDS011;56065;52.472;13.380;2022-11-09T01:37:40;6.90;;;2.47;;
69008;SDS011;56065;52.472;13.380;2022-11-09T01:40:05;8.03;;;2.13;;
69008;SDS011;56065;52.472;13.380;2022-11-09T01:42:34;10.85;;;3.88;;
69008;SDS011;56065;52.472;13.380;2022-11-09T01:47:41;4.88;;;1.70;;
69008;SDS011;56065;52.472;13.380;2022-11-09T01:50:09;4.97;;;1.80;;
69008;SDS011;56065;52.472;13.380;2022-11-09T01:52:37;5.32;;;1.73;;
69008;SDS011;56065;52.472;13.380;2022-11-09T01:55:12;6.45;;;1.63;;
69008;SDS011;56065;52.472;13.380;2022-11-09T02:00:44;5.50;;;1.77;;
69008;SDS011;56065;52.472;13.380;2022-11-09T02:03:20;4.60;;;1.77;;
69008;SDS011;56065;52.472;13.380;2022-11-09T02:05:49;5.90;;;1.60;;
69008;SDS011;56065;52.472;13.380;2022-11-09T02:08:17;6.07;;;1.60;;
69008;SDS011;56065;52.472;13.380;2022-11-09T02:10:59;7.78;;;1.60;;
69008;SDS011;56065;52.472;13.380;2022-11-09T02:13:31;6.38;;;1.58;;
69008;SDS011;56065;52.472;13.380;2022-11-09T02:15:57;5.80;;;1.27;;
69008;SDS011;56065;52.472;13.380;2022-11-09T02:18:23;5.63;;;1.67;;
69008;SDS011;56065;52.472;13.380;2022-11-09T02:20:52;5.77;;;1.80;;
69008;SDS011;56065;52.472;13.380;2022-11-09T02:23:20;6.05;;;1.70;;
69008;SDS011;56065;52.472;13.380;2022-11-09T02:25:53;4.40;;;1.60;;
69008;SDS011;56065;52.472;13.380;2022-11-09T02:28:22;6.17;;;1.70;;
69008;SDS011;56065;52.472;13.380;2022-11-09T02:30:49;6.97;;;2.00;;
69008;SDS011;56065;52.472;13.380;2022-11-09T02:33:17;5.45;;;1.90;;
69008;SDS011;56065;52.472;13.380;2022-11-09T02:35:43;6.83;;;1.90;;
69008;SDS011;56065;52.472;13.380;2022-11-09T02:38:09;7.67;;;1.80;;
69008;SDS011;56065;52.472;13.380;2022-11-09T02:40:35;7.45;;;2.00;;
69008;SDS011;56065;52.472;13.380;2022-11-09T02:43:02;5.13;;;1.70;;
69008;SDS011;56065;52.472;13.380;2022-11-09T02:45:29;7.07;;;1.90;;
69008;SDS011;56065;52.472;13.380;2022-11-09T02:47:55;5.23;;;1.73;;
69008;SDS011;56065;52.472;13.380;2022-11-09T02:50:20;5.53;;;2.03;;
69008;SDS011;56065;52.472;13.380;2022-11-09T02:52:46;5.20;;;1.50;;
69008;SDS011;56065;52.472;13.380;2022-11-09T02:55:11;6.37;;;1.87;;
69008;SDS011;56065;52.472;13.380;2022-11-09T02:57:36;6.13;;;1.80;;
69008;SDS011;56065;52.472;13.380;2022-11-09T03:00:02;5.57;;;1.60;;
69008;SDS011;56065;52.472;13.380;2022-11-09T03:02:29;7.63;;;1.83;;
69008;SDS011;56065;52.472;13.380;2022-11-09T03:04:55;4.77;;;1.47;;
69008;SDS011;56065;52.472;13.380;2022-11-09T03:07:20;4.33;;;1.50;;
69008;SDS011;56065;52.472;13.380;2022-11-09T03:09:46;6.63;;;1.90;;
69008;SDS011;56065;52.472;13.380;2022-11-09T03:12:11;7.90;;;1.87;;
69008;SDS011;56065;52.472;13.380;2022-11-09T03:15:02;5.72;;;1.80;;
69008;SDS011;56065;52.472;13.380;2022-11-09T03:17:30;6.20;;;1.97;;
69008;SDS011;56065;52.472;13.380;2022-11-09T03:19:56;4.78;;;1.50;;
69008;SDS011;56065;52.472;13.380;2022-11-09T03:22:21;7.60;;;2.07;;
69008;SDS011;56065;52.472;13.380;2022-11-09T03:24:47;5.70;;;1.80;;
69008;SDS011;56065;52.472;13.380;2022-11-09T03:27:13;7.13;;;1.85;;
69008;SDS011;56065;52.472;13.380;2022-11-09T03:29:38;5.83;;;1.70;;
69008;SDS011;56065;52.472;13.380;2022-11-09T03:32:04;7.37;;;1.87;;
69008;SDS011;56065;52.472;13.380;2022-11-09T03:34:30;6.10;;;1.63;;
69008;SDS011;56065;52.472;13.380;2022-11-09T03:36:55;7.13;;;1.83;;
69008;SDS011;56065;52.472;13.380;2022-11-09T03:39:21;5.93;;;2.07;;
69008;SDS011;56065;52.472;13.380;2022-11-09T03:41:46;7.03;;;1.73;;
69008;SDS011;56065;52.472;13.380;2022-11-09T03:44:12;5.93;;;1.60;;
69008;SDS011;56065;52.472;13.380;2022-11-09T03:46:37;5.90;;;1.60;;
69008;SDS011;56065;52.472;13.380;2022-11-09T03:49:03;4.57;;;1.60;;
69008;SDS011;56065;52.472;13.380;2022-11-09T03:51:28;5.33;;;1.83;;
69008;SDS011;56065;52.472;13.380;2022-11-09T03:53:53;5.17;;;1.57;;
69008;SDS011;56065;52.472;13.380;2022-11-09T03:56:19;6.80;;;1.70;;
69008;SDS011;56065;52.472;13.380;2022-11-09T03:58:44;5.80;;;1.70;;
69008;SDS011;56065;52.472;13.380;2022-11-09T04:01:09;8.93;;;2.20;;
69008;SDS011;56065;52.472;13.380;2022-11-09T04:03:35;4.47;;;1.60;;
69008;SDS011;56065;52.472;13.380;2022-11-09T04:06:01;5.57;;;1.45;;
69008;SDS011;56065;52.472;13.380;2022-11-09T04:08:26;6.50;;;1.70;;
69008;SDS011;56065;52.472;13.380;2022-11-09T04:10:51;4.88;;;1.40;;
69008;SDS011;56065;52.472;13.380;2022-11-09T04:13:17;5.47;;;1.53;;
69008;SDS011;56065;52.472;13.380;2022-11-09T04:15:42;6.80;;;1.63;;
69008;SDS011;56065;52.472;13.380;2022-11-09T04:18:10;6.90;;;1.53;;
69008;SDS011;56065;52.472;13.380;2022-11-09T04:20:37;5.93;;;1.70;;
69008;SDS011;56065;52.472;13.380;2022-11-09T04:23:03;6.10;;;1.73;;
69008;SDS011;56065;52.472;13.380;2022-11-09T04:25:31;5.55;;;1.58;;
69008;SDS011;56065;52.472;13.380;2022-11-09T04:27:59;6.55;;;1.83;;
69008;SDS011;56065;52.472;13.380;2022-11-09T04:30:25;5.85;;;1.98;;
69008;SDS011;56065;52.472;13.380;2022-11-09T04:32:52;5.57;;;1.52;;
69008;SDS011;56065;52.472;13.380;2022-11-09T04:35:18;5.40;;;1.50;;
69008;SDS011;56065;52.472;13.380;2022-11-09T04:37:51;5.35;;;1.40;;
69008;SDS011;56065;52.472;13.380;2022-11-09T04:40:27;4.90;;;1.60;;
69008;SDS011;56065;52.472;13.380;2022-11-09T04:42:54;6.45;;;1.83;;
69008;SDS011;56065;52.472;13.380;2022-11-09T04:45:22;5.90;;;2.00;;
69008;SDS011;56065;52.472;13.380;2022-11-09T04:47:48;7.57;;;1.70;;
69008;SDS011;56065;52.472;13.380;2022-11-09T04:50:13;6.83;;;1.57;;
69008;SDS011;56065;52.472;13.380;2022-11-09T04:52:39;5.03;;;1.53;;
69008;SDS011;56065;52.472;13.380;2022-11-09T04:55:04;5.60;;;1.60;;
69008;SDS011;56065;52.472;13.380;2022-11-09T04:57:30;5.40;;;1.52;;
69008;SDS011;56065;52.472;13.380;2022-11-09T04:59:55;8.10;;;2.13;;
69008;SDS011;56065;52.472;13.380;2022-11-09T05:02:21;5.70;;;1.73;;
69008;SDS011;56065;52.472;13.380;2022-11-09T05:04:46;5.67;;;1.60;;
69008;SDS011;56065;52.472;13.380;2022-11-09T05:07:12;5.97;;;1.83;;
69008;SDS011;56065;52.472;13.380;2022-11-09T05:09:37;8.80;;;2.00;;
69008;SDS011;56065;52.472;13.380;2022-11-09T05:12:02;5.88;;;1.90;;
69008;SDS011;56065;52.472;13.380;2022-11-09T05:14:28;4.97;;;1.60;;
69008;SDS011;56065;52.472;13.380;2022-11-09T05:16:53;5.47;;;1.87;;
69008;SDS011;56065;52.472;13.380;2022-11-09T05:19:19;8.10;;;1.80;;
69008;SDS011;56065;52.472;13.380;2022-11-09T05:21:44;7.40;;;1.73;;
69008;SDS011;56065;52.472;13.380;2022-11-09T05:24:09;5.10;;;1.70;;
69008;SDS011;56065;52.472;13.380;2022-11-09T05:26:36;5.23;;;1.70;;
69008;SDS011;56065;52.472;13.380;2022-11-09T05:29:04;6.18;;;1.70;;
69008;SDS011;56065;52.472;13.380;2022-11-09T05:31:31;4.97;;;1.60;;
69008;SDS011;56065;52.472;13.380;2022-11-09T05:33:57;6.07;;;1.73;;
69008;SDS011;56065;52.472;13.380;2022-11-09T05:36:23;5.80;;;1.90;;
69008;SDS011;56065;52.472;13.380;2022-11-09T05:38:49;6.50;;;1.80;;
69008;SDS011;56065;52.472;13.380;2022-11-09T05:41:15;5.37;;;1.73;;
69008;SDS011;56065;52.472;13.380;2022-11-09T05:43:41;8.10;;;2.10;;
69008;SDS011;56065;52.472;13.380;2022-11-09T05:46:08;6.75;;;1.70;;
69008;SDS011;56065;52.472;13.380;2022-11-09T05:48:34;5.53;;;1.80;;
69008;SDS011;56065;52.472;13.380;2022-11-09T05:51:00;7.72;;;1.80;;
69008;SDS011;56065;52.472;13.380;2022-11-09T05:53:27;6.95;;;2.38;;
69008;SDS011;56065;52.472;13.380;2022-11-09T05:55:53;5.67;;;1.80;;
69008;SDS011;56065;52.472;13.380;2022-11-09T05:58:19;6.78;;;2.00;;
69008;SDS011;56065;52.472;13.380;2022-11-09T06:00:44;6.53;;;1.77;;
69008;SDS011;56065;52.472;13.380;2022-11-09T06:03:10;7.63;;;1.90;;
69008;SDS011;56065;52.472;13.380;2022-11-09T06:05:36;5.55;;;2.00;;
69008;SDS011;56065;52.472;13.380;2022-11-09T06:08:03;5.97;;;1.97;;
69008;SDS011;56065;52.472;13.380;2022-11-09T06:10:29;7.13;;;1.90;;
69008;SDS011;56065;52.472;13.380;2022-11-09T06:12:55;6.20;;;2.03;;
69008;SDS011;56065;52.472;13.380;2022-11-09T06:15:20;9.35;;;2.13;;
69008;SDS011;56065;52.472;13.380;2022-11-09T06:17:55;7.73;;;1.90;;
69008;SDS011;56065;52.472;13.380;2022-11-09T06:20:22;5.68;;;1.98;;
69008;SDS011;56065;52.472;13.380;2022-11-09T06:22:54;7.43;;;2.20;;
69008;SDS011;56065;52.472;13.380;2022-11-09T06:25:24;6.40;;;1.70;;
69008;SDS011;56065;52.472;13.380;2022-11-09T06:27:52;6.75;;;1.92;;
69008;SDS011;56065;52.472;13.380;2022-11-09T06:30:17;7.67;;;2.13;;
69008;SDS011;56065;52.472;13.380;2022-11-09T06:32:43;6.70;;;2.22;;
69008;SDS011;56065;52.472;13.380;2022-11-09T06:35:08;5.13;;;1.70;;
69008;SDS011;56065;52.472;13.380;2022-11-09T06:37:33;5.10;;;1.80;;
69008;SDS011;56065;52.472;13.380;2022-11-09T06:39:59;7.20;;;1.87;;
69008;SDS011;56065;52.472;13.380;2022-11-09T06:42:24;6.17;;;1.83;;
69008;SDS011;56065;52.472;13.380;2022-11-09T06:44:49;5.20;;;1.90;;
69008;SDS011;56065;52.472;13.380;2022-11-09T06:47:15;5.40;;;2.10;;
69008;SDS011;56065;52.472;13.380;2022-11-09T06:49:40;7.00;;;2.00;;
69008;SDS011;56065;52.472;13.380;2022-11-09T06:52:06;7.07;;;2.07;;
69008;SDS011;56065;52.472;13.380;2022-11-09T06:54:31;7.00;;;2.10;;
69008;SDS011;56065;52.472;13.380;2022-11-09T06:56:58;5.97;;;2.00;;
69008;SDS011;56065;52.472;13.380;2022-11-09T06:59:23;7.00;;;2.10;;
69008;SDS011;56065;52.472;13.380;2022-11-09T07:01:49;8.17;;;2.10;;
69008;SDS011;56065;52.472;13.380;2022-11-09T07:04:14;6.55;;;2.00;;
69008;SDS011;56065;52.472;13.380;2022-11-09T07:06:40;9.40;;;2.23;;
69008;SDS011;56065;52.472;13.380;2022-11-09T07:09:06;5.90;;;1.87;;
69008;SDS011;56065;52.472;13.380;2022-11-09T07:11:32;6.18;;;2.30;;
69008;SDS011;56065;52.472;13.380;2022-11-09T07:13:57;6.97;;;2.10;;
69008;SDS011;56065;52.472;13.380;2022-11-09T07:16:22;7.90;;;2.33;;
69008;SDS011;56065;52.472;13.380;2022-11-09T07:18:48;7.60;;;2.10;;
69008;SDS011;56065;52.472;13.380;2022-11-09T07:21:13;10.53;;;2.80;;
69008;SDS011;56065;52.472;13.380;2022-11-09T07:23:39;7.83;;;2.80;;
69008;SDS011;56065;52.472;13.380;2022-11-09T07:26:05;8.45;;;2.30;;
69008;SDS011;56065;52.472;13.380;2022-11-09T07:28:30;7.80;;;2.90;;
69008;SDS011;56065;52.472;13.380;2022-11-09T07:30:56;5.97;;;2.00;;
69008;SDS011;56065;52.472;13.380;2022-11-09T07:33:22;9.82;;;2.53;;
69008;SDS011;56065;52.472;13.380;2022-11-09T07:35:49;8.73;;;2.87;;
69008;SDS011;56065;52.472;13.380;2022-11-09T07:38:14;7.68;;;2.38;;
69008;SDS011;56065;52.472;13.380;2022-11-09T07:40:40;10.70;;;3.30;;
69008;SDS011;56065;52.472;13.380;2022-11-09T07:43:06;8.53;;;2.73;;
69008;SDS011;56065;52.472;13.380;2022-11-09T07:45:33;6.37;;;2.47;;
69008;SDS011;56065;52.472;13.380;2022-11-09T07:48:00;8.25;;;2.47;;
69008;SDS011;56065;52.472;13.380;2022-11-09T07:50:30;8.43;;;3.05;;
69008;SDS011;56065;52.472;13.380;2022-11-09T07:52:57;9.52;;;2.97;;
69008;SDS011;56065;52.472;13.380;2022-11-09T07:55:24;7.10;;;2.63;;
69008;SDS011;56065;52.472;13.380;2022-11-09T07:58:10;8.83;;;2.87;;
69008;SDS011;56065;52.472;13.380;2022-11-09T08:00:37;8.77;;;3.05;;
69008;SDS011;56065;52.472;13.380;2022-11-09T08:03:04;6.35;;;1.90;;
69008;SDS011;56065;52.472;13.380;2022-11-09T08:05:30;6.53;;;2.40;;
69008;SDS011;56065;52.472;13.380;2022-11-09T08:07:57;9.67;;;2.63;;
69008;SDS011;56065;52.472;13.380;2022-11-09T08:10:24;6.97;;;2.45;;
69008;SDS011;56065;52.472;13.380;2022-11-09T08:12:51;7.18;;;2.60;;
69008;SDS011;56065;52.472;13.380;2022-11-09T08:15:18;7.30;;;2.30;;
69008;SDS011;56065;52.472;13.380;2022-11-09T08:17:43;7.50;;;2.40;;
69008;SDS011;56065;52.472;13.380;2022-11-09T08:20:09;6.63;;;2.20;;
69008;SDS011;56065;52.472;13.380;2022-11-09T08:22:39;7.27;;;2.40;;
69008;SDS011;56065;52.472;13.380;2022-11-09T08:25:08;11.10;;;2.75;;
69008;SDS011;56065;52.472;13.380;2022-11-09T08:27:34;7.03;;;2.50;;
69008;SDS011;56065;52.472;13.380;2022-11-09T08:30:04;7.95;;;2.55;;
69008;SDS011;56065;52.472;13.380;2022-11-09T08:32:31;8.90;;;2.20;;
69008;SDS011;56065;52.472;13.380;2022-11-09T08:34:57;6.03;;;2.30;;
69008;SDS011;56065;52.472;13.380;2022-11-09T08:37:22;7.97;;;2.63;;
69008;SDS011;56065;52.472;13.380;2022-11-09T08:39:47;8.70;;;2.70;;
69008;SDS011;56065;52.472;13.380;2022-11-09T08:42:13;7.33;;;2.67;;
69008;SDS011;56065;52.472;13.380;2022-11-09T08:44:38;6.88;;;2.40;;
69008;SDS011;56065;52.472;13.380;2022-11-09T08:47:03;7.07;;;2.93;;
69008;SDS011;56065;52.472;13.380;2022-11-09T08:49:28;9.33;;;2.57;;
69008;SDS011;56065;52.472;13.380;2022-11-09T08:51:54;6.63;;;2.57;;
69008;SDS011;56065;52.472;13.380;2022-11-09T08:54:19;8.83;;;3.03;;
69008;SDS011;56065;52.472;13.380;2022-11-09T08:56:45;8.30;;;3.10;;
69008;SDS011;56065;52.472;13.380;2022-11-09T08:59:10;9.80;;;3.40;;
69008;SDS011;56065;52.472;13.380;2022-11-09T09:01:36;7.45;;;2.80;;
69008;SDS011;56065;52.472;13.380;2022-11-09T09:04:01;6.70;;;2.80;;
69008;SDS011;56065;52.472;13.380;2022-11-09T09:06:27;7.80;;;2.47;;
69008;SDS011;56065;52.472;13.380;2022-11-09T09:08:52;8.23;;;2.80;;
69008;SDS011;56065;52.472;13.380;2022-11-09T09:11:17;7.70;;;3.13;;
69008;SDS011;56065;52.472;13.380;2022-11-09T09:13:43;7.97;;;2.73;;
69008;SDS011;56065;52.472;13.380;2022-11-09T09:16:12;7.83;;;3.17;;
69008;SDS011;56065;52.472;13.380;2022-11-09T09:18:39;9.05;;;3.53;;
69008;SDS011;56065;52.472;13.380;2022-11-09T09:21:05;6.50;;;2.70;;
69008;SDS011;56065;52.472;13.380;2022-11-09T09:23:31;7.10;;;2.92;;
69008;SDS011;56065;52.472;13.380;2022-11-09T09:25:57;8.30;;;3.13;;
69008;SDS011;56065;52.472;13.380;2022-11-09T09:28:22;8.10;;;2.70;;
69008;SDS011;56065;52.472;13.380;2022-11-09T09:30:47;7.53;;;2.80;;
69008;SDS011;56065;52.472;13.380;2022-11-09T09:33:13;9.03;;;2.80;;
69008;SDS011;56065;52.472;13.380;2022-11-09T09:35:38;8.27;;;3.17;;
69008;SDS011;56065;52.472;13.380;2022-11-09T09:38:03;8.10;;;2.60;;
69008;SDS011;56065;52.472;13.380;2022-11-09T09:40:33;7.57;;;2.80;;
69008;SDS011;56065;52.472;13.380;2022-11-09T09:43:02;9.18;;;3.10;;
69008;SDS011;56065;52.472;13.380;2022-11-09T09:45:31;8.17;;;2.93;;
69008;SDS011;56065;52.472;13.380;2022-11-09T09:48:03;11.27;;;3.17;;
69008;SDS011;56065;52.472;13.380;2022-11-09T09:50:53;7.32;;;3.28;;
69008;SDS011;56065;52.472;13.380;2022-11-09T09:55:59;6.63;;;2.60;;
69008;SDS011;56065;52.472;13.380;2022-11-09T09:58:29;9.75;;;2.92;;
69008;SDS011;56065;52.472;13.380;2022-11-09T10:00:59;7.17;;;2.90;;
69008;SDS011;56065;52.472;13.380;2022-11-09T10:03:29;10.95;;;2.60;;
69008;SDS011;56065;52.472;13.380;2022-11-09T10:09:33;7.23;;;2.47;;
69008;SDS011;56065;52.472;13.380;2022-11-09T10:14:24;7.50;;;2.85;;
69008;SDS011;56065;52.472;13.380;2022-11-09T10:19:41;6.85;;;2.58;;
69008;SDS011;56065;52.472;13.380;2022-11-09T10:22:19;7.87;;;2.80;;
69008;SDS011;56065;52.472;13.380;2022-11-09T10:25:21;7.78;;;3.03;;
69008;SDS011;56065;52.472;13.380;2022-11-09T10:27:58;7.50;;;2.63;;
69008;SDS011;56065;52.472;13.380;2022-11-09T10:30:27;9.73;;;3.10;;
69008;SDS011;56065;52.472;13.380;2022-11-09T10:32:54;7.90;;;2.85;;
69008;SDS011;56065;52.472;13.380;2022-11-09T10:38:39;7.75;;;2.70;;
69008;SDS011;56065;52.472;13.380;2022-11-09T10:41:28;8.23;;;2.83;;
69008;SDS011;56065;52.472;13.380;2022-11-09T10:43:58;6.90;;;2.60;;
69008;SDS011;56065;52.472;13.380;2022-11-09T10:46:23;8.00;;;3.23;;
69008;SDS011;56065;52.472;13.380;2022-11-09T10:48:49;5.93;;;2.30;;
69008;SDS011;56065;52.472;13.380;2022-11-09T10:51:29;8.70;;;3.08;;
69008;SDS011;56065;52.472;13.380;2022-11-09T10:56:43;7.82;;;2.20;;
69008;SDS011;56065;52.472;13.380;2022-11-09T10:59:58;8.07;;;2.40;;
69008;SDS011;56065;52.472;13.380;2022-11-09T11:07:30;7.57;;;2.53;;
69008;SDS011;56065;52.472;13.380;2022-11-09T11:09:56;8.57;;;2.10;;
69008;SDS011;56065;52.472;13.380;2022-11-09T11:12:33;6.65;;;2.33;;
69008;SDS011;56065;52.472;13.380;2022-11-09T11:14:58;6.20;;;2.30;;
69008;SDS011;56065;52.472;13.380;2022-11-09T11:17:28;6.27;;;2.03;;
69008;SDS011;56065;52.472;13.380;2022-11-09T11:28:27;5.67;;;2.00;;
69008;SDS011;56065;52.472;13.380;2022-11-09T11:30:57;5.53;;;1.70;;
69008;SDS011;56065;52.472;13.380;2022-11-09T11:33:22;4.63;;;1.63;;
69008;SDS011;56065;52.472;13.380;2022-11-09T11:36:10;5.78;;;1.70;;
69008;SDS011;56065;52.472;13.380;2022-11-09T11:46:57;5.20;;;1.80;;
69008;SDS011;56065;52.472;13.380;2022-11-09T11:52:31;6.33;;;1.90;;
69008;SDS011;56065;52.472;13.380;2022-11-09T12:05:30;5.87;;;1.70;;
69008;SDS011;56065;52.472;13.380;2022-11-09T12:08:21;5.20;;;1.80;;
69008;SDS011;56065;52.472;13.380;2022-11-09T12:28:27;5.25;;;1.70;;
69008;SDS011;56065;52.472;13.380;2022-11-09T12:34:06;5.27;;;1.50;;
69008;SDS011;56065;52.472;13.380;2022-11-09T12:36:43;5.55;;;1.70;;
69008;SDS011;56065;52.472;13.380;2022-11-09T12:39:17;6.20;;;1.58;;
69008;SDS011;56065;52.472;13.380;2022-11-09T12:41:50;7.22;;;1.73;;
69008;SDS011;56065;52.472;13.380;2022-11-09T12:44:21;4.72;;;1.63;;
69008;SDS011;56065;52.472;13.380;2022-11-09T12:46:55;4.77;;;1.40;;
69008;SDS011;56065;52.472;13.380;2022-11-09T12:52:03;4.32;;;1.30;;
69008;SDS011;56065;52.472;13.380;2022-11-09T12:54:30;4.45;;;1.35;;
69008;SDS011;56065;52.472;13.380;2022-11-09T12:56:57;4.57;;;1.20;;
69008;SDS011;56065;52.472;13.380;2022-11-09T13:01:52;4.47;;;1.10;;
69008;SDS011;56065;52.472;13.380;2022-11-09T13:04:23;5.25;;;1.33;;
69008;SDS011;56065;52.472;13.380;2022-11-09T13:09:33;5.60;;;1.33;;
69008;SDS011;56065;52.472;13.380;2022-11-09T13:11:59;4.63;;;1.30;;
69008;SDS011;56065;52.472;13.380;2022-11-09T13:14:41;6.95;;;1.20;;
69008;SDS011;56065;52.472;13.380;2022-11-09T13:25:04;4.70;;;1.10;;
69008;SDS011;56065;52.472;13.380;2022-11-09T13:30:52;5.00;;;0.90;;
69008;SDS011;56065;52.472;13.380;2022-11-09T13:33:22;4.38;;;1.10;;
69008;SDS011;56065;52.472;13.380;2022-11-09T13:40:50;4.90;;;1.05;;
69008;SDS011;56065;52.472;13.380;2022-11-09T13:43:30;4.20;;;1.20;;
69008;SDS011;56065;52.472;13.380;2022-11-09T13:58:56;3.35;;;1.00;;
69008;SDS011;56065;52.472;13.380;2022-11-09T14:01:43;4.60;;;1.20;;
69008;SDS011;56065;52.472;13.380;2022-11-09T14:06:48;4.93;;;1.27;;
69008;SDS011;56065;52.472;13.380;2022-11-09T14:09:15;4.83;;;1.50;;
69008;SDS011;56065;52.472;13.380;2022-11-09T14:11:56;4.45;;;1.20;;
69008;SDS011;56065;52.472;13.380;2022-11-09T14:17:40;5.47;;;1.00;;
69008;SDS011;56065;52.472;13.380;2022-11-09T14:23:14;4.03;;;1.23;;
69008;SDS011;56065;52.472;13.380;2022-11-09T14:25:41;4.45;;;1.30;;
69008;SDS011;56065;52.472;13.380;2022-11-09T14:28:18;3.33;;;1.10;;
69008;SDS011;56065;52.472;13.380;2022-11-09T14:30:47;4.95;;;1.23;;
69008;SDS011;56065;52.472;13.380;2022-11-09T14:33:31;5.20;;;1.10;;
69008;SDS011;56065;52.472;13.380;2022-11-09T14:35:59;5.35;;;1.25;;
69008;SDS011;56065;52.472;13.380;2022-11-09T14:38:28;4.13;;;1.30;;
69008;SDS011;56065;52.472;13.380;2022-11-09T14:40:56;5.30;;;1.30;;
69008;SDS011;56065;52.472;13.380;2022-11-09T14:43:23;4.70;;;1.20;;
69008;SDS011;56065;52.472;13.380;2022-11-09T14:45:59;4.68;;;1.63;;
69008;SDS011;56065;52.472;13.380;2022-11-09T14:48:27;5.05;;;1.50;;
69008;SDS011;56065;52.472;13.380;2022-11-09T14:50:54;4.25;;;1.30;;
69008;SDS011;56065;52.472;13.380;2022-11-09T14:55:53;4.95;;;1.33;;
69008;SDS011;56065;52.472;13.380;2022-11-09T14:58:19;5.68;;;1.40;;
69008;SDS011;56065;52.472;13.380;2022-11-09T15:01:07;4.55;;;1.48;;
69008;SDS011;56065;52.472;13.380;2022-11-09T15:07:12;6.07;;;1.70;;
69008;SDS011;56065;52.472;13.380;2022-11-09T15:09:33;5.28;;;1.30;;
69008;SDS011;56065;52.472;13.380;2022-11-09T15:12:18;5.80;;;1.40;;
69008;SDS011;56065;52.472;13.380;2022-11-09T15:14:52;6.20;;;1.77;;
69008;SDS011;56065;52.472;13.380;2022-11-09T15:19:53;5.77;;;2.07;;
69008;SDS011;56065;52.472;13.380;2022-11-09T15:25:16;6.95;;;1.90;;
69008;SDS011;56065;52.472;13.380;2022-11-09T15:27:42;6.50;;;1.90;;
69008;SDS011;56065;52.472;13.380;2022-11-09T15:30:25;5.20;;;1.60;;
69008;SDS011;56065;52.472;13.380;2022-11-09T15:32:54;6.53;;;1.85;;
69008;SDS011;56065;52.472;13.380;2022-11-09T15:35:19;9.03;;;2.30;;
69008;SDS011;56065;52.472;13.380;2022-11-09T15:37:47;5.32;;;2.25;;
69008;SDS011;56065;52.472;13.380;2022-11-09T15:40:15;5.90;;;1.77;;
69008;SDS011;56065;52.472;13.380;2022-11-09T15:42:43;7.70;;;2.03;;
69008;SDS011;56065;52.472;13.380;2022-11-09T15:45:12;6.72;;;2.22;;
69008;SDS011;56065;52.472;13.380;2022-11-09T15:47:39;5.95;;;1.92;;
69008;SDS011;56065;52.472;13.380;2022-11-09T15:50:18;7.37;;;1.87;;
69008;SDS011;56065;52.472;13.380;2022-11-09T15:52:46;6.70;;;1.98;;
69008;SDS011;56065;52.472;13.380;2022-11-09T15:55:15;7.47;;;2.10;;
69008;SDS011;56065;52.472;13.380;2022-11-09T15:57:45;5.35;;;1.95;;
69008;SDS011;56065;52.472;13.380;2022-11-09T16:00:14;6.63;;;2.30;;
69008;SDS011;56065;52.472;13.380;2022-11-09T16:02:42;6.03;;;1.98;;
69008;SDS011;56065;52.472;13.380;2022-11-09T16:05:07;5.87;;;2.17;;
69008;SDS011;56065;52.472;13.380;2022-11-09T16:07:33;6.17;;;2.17;;
69008;SDS011;56065;52.472;13.380;2022-11-09T16:09:58;5.90;;;2.00;;
69008;SDS011;56065;52.472;13.380;2022-11-09T16:12:24;7.63;;;2.10;;
69008;SDS011;56065;52.472;13.380;2022-11-09T16:14:49;7.73;;;2.17;;
69008;SDS011;56065;52.472;13.380;2022-11-09T16:17:15;6.40;;;2.20;;
69008;SDS011;56065;52.472;13.380;2022-11-09T16:19:40;7.28;;;1.92;;
69008;SDS011;56065;52.472;13.380;2022-11-09T16:22:07;5.90;;;2.33;;
69008;SDS011;56065;52.472;13.380;2022-11-09T16:24:34;5.88;;;2.13;;
69008;SDS011;56065;52.472;13.380;2022-11-09T16:26:59;7.55;;;2.90;;
69008;SDS011;56065;52.472;13.380;2022-11-09T16:29:26;7.67;;;2.50;;
69008;SDS011;56065;52.472;13.380;2022-11-09T16:31:53;7.00;;;2.78;;
69008;SDS011;56065;52.472;13.380;2022-11-09T16:34:19;7.97;;;2.42;;
69008;SDS011;56065;52.472;13.380;2022-11-09T16:36:45;7.13;;;2.60;;
69008;SDS011;56065;52.472;13.380;2022-11-09T16:39:11;6.93;;;2.60;;
69008;SDS011;56065;52.472;13.380;2022-11-09T16:41:41;6.50;;;2.40;;
69008;SDS011;56065;52.472;13.380;2022-11-09T16:44:12;7.07;;;2.50;;
69008;SDS011;56065;52.472;13.380;2022-11-09T16:46:40;7.30;;;2.90;;
69008;SDS011;56065;52.472;13.380;2022-11-09T16:49:07;8.57;;;3.00;;
69008;SDS011;56065;52.472;13.380;2022-11-09T16:51:33;7.17;;;2.87;;
69008;SDS011;56065;52.472;13.380;2022-11-09T16:53:58;5.57;;;2.40;;
69008;SDS011;56065;52.472;13.380;2022-11-09T16:56:23;7.57;;;3.00;;